SKGO

Santa Ana Airport (Colombia)

Airport
ICAO code
SKGO
IATA Code
CRC
Summary
ICAO Region
CARSAM
ICAO Territory
Location

Santa Ana, Valle del Cauca Department

Serving
Cartago
Elevation
2979 ft
Coordinates
4° 45' 37" N , 75° 57' 10" W
KCC
Metar
SKGO 240000Z AUTO 20006KT 9999 BKN100/// 27/19 Q1014

Santa Ana Airport is an airport serving Cartago, a city in the Valle del Cauca Department of Colombia.

Climatology

Tropical rainforest climate (Köppen climate classification Af)

Runways

Designator Length Width Surface Rops
1/19 2200 40 ASP No/No

Airport map

Aerial View

SKYbrary Partners:

Safety knowledge contributed by: